createdAt,value
2018-11-27T00:00:12.913Z,0.10
2018-11-27T00:02:41.195Z,0.10
2018-11-27T00:05:09.995Z,0.10
2018-11-27T00:07:38.355Z,0.10
2018-11-27T00:10:08.689Z,0.10
2018-11-27T00:12:37.028Z,0.10
2018-11-27T00:15:08.736Z,0.10
2018-11-27T00:17:37.060Z,0.10
2018-11-27T00:20:07.127Z,0.00
2018-11-27T00:22:35.455Z,0.00
2018-11-27T00:25:03.864Z,-0.10
2018-11-27T00:27:32.197Z,-0.10
2018-11-27T00:30:00.445Z,-0.10
2018-11-27T00:32:28.771Z,-0.10
2018-11-27T00:34:57.181Z,-0.10
2018-11-27T00:37:25.487Z,-0.10
2018-11-27T00:39:53.855Z,-0.20
2018-11-27T00:42:22.159Z,-0.20
2018-11-27T00:44:50.547Z,-0.20
2018-11-27T00:47:19.076Z,-0.30
2018-11-27T00:49:47.371Z,-0.30
2018-11-27T00:52:15.659Z,-0.30
2018-11-27T00:54:44.039Z,-0.40
2018-11-27T00:57:12.304Z,-0.40
2018-11-27T00:59:40.621Z,-0.40
2018-11-27T01:02:08.861Z,-0.50
2018-11-27T01:04:37.167Z,-0.50
2018-11-27T01:07:05.457Z,-0.50
2018-11-27T01:09:33.740Z,-0.60
2018-11-27T01:12:01.969Z,-0.60
2018-11-27T01:14:30.209Z,-0.60
2018-11-27T01:16:58.415Z,-0.60
2018-11-27T01:19:26.699Z,-0.60
2018-11-27T01:21:54.970Z,-0.70
2018-11-27T01:24:23.263Z,-0.70
2018-11-27T01:26:51.472Z,-0.70
2018-11-27T01:29:19.733Z,-0.80
2018-11-27T01:31:48.066Z,-0.80
2018-11-27T01:34:16.357Z,-0.90
2018-11-27T01:36:44.655Z,-0.90
2018-11-27T01:39:12.987Z,-0.90
2018-11-27T01:41:41.261Z,-0.90
2018-11-27T01:44:09.545Z,-0.90
2018-11-27T01:46:37.909Z,-1.00
2018-11-27T01:49:06.464Z,-1.00
2018-11-27T01:51:34.834Z,-1.00
2018-11-27T01:54:03.079Z,-0.90
2018-11-27T01:56:31.475Z,-1.00
2018-11-27T01:58:59.910Z,-1.00
2018-11-27T02:01:28.252Z,-1.00
2018-11-27T02:03:56.625Z,-1.00
2018-11-27T02:06:25.020Z,-1.10
2018-11-27T02:08:53.282Z,-1.10
2018-11-27T02:11:21.564Z,-1.10
2018-11-27T02:13:49.904Z,-1.10
2018-11-27T02:16:18.183Z,-1.10
2018-11-27T02:18:46.492Z,-1.00
2018-11-27T02:21:14.822Z,-1.00
2018-11-27T02:23:43.078Z,-1.10
2018-11-27T02:26:11.374Z,-1.10
2018-11-27T02:28:39.637Z,-1.10
2018-11-27T02:31:07.909Z,-1.10
2018-11-27T02:33:36.229Z,-1.20
2018-11-27T02:36:04.665Z,-1.20
2018-11-27T02:38:32.986Z,-1.20
2018-11-27T02:41:01.348Z,-1.10
2018-11-27T02:43:30.728Z,-1.20
2018-11-27T02:45:58.952Z,-1.20
2018-11-27T02:48:27.453Z,-1.20
2018-11-27T02:50:55.712Z,-1.10
2018-11-27T02:53:23.957Z,-1.10
2018-11-27T02:55:52.320Z,-1.10
2018-11-27T02:58:20.593Z,-1.20
2018-11-27T03:00:48.833Z,-1.10
2018-11-27T03:03:17.217Z,-1.10
2018-11-27T03:05:45.503Z,-1.10
2018-11-27T03:08:13.706Z,-1.20
2018-11-27T03:10:42.005Z,-1.20
2018-11-27T03:13:10.207Z,-1.20
2018-11-27T03:15:38.483Z,-1.20
2018-11-27T03:18:06.840Z,-1.20
2018-11-27T03:20:35.217Z,-1.20
2018-11-27T03:23:03.500Z,-1.30
2018-11-27T03:25:31.782Z,-1.30
2018-11-27T03:28:00.067Z,-1.30
2018-11-27T03:30:28.528Z,-1.30
2018-11-27T03:32:56.833Z,-1.30
2018-11-27T03:35:25.759Z,-1.30
2018-11-27T03:37:54.310Z,-1.20
2018-11-27T03:40:25.723Z,-1.20
2018-11-27T03:42:54.129Z,-1.20
2018-11-27T03:45:23.115Z,-1.30
2018-11-27T03:47:51.495Z,-1.30
2018-11-27T03:50:28.738Z,-1.30
2018-11-27T03:52:57.012Z,-1.30
2018-11-27T03:55:25.467Z,-1.30
2018-11-27T03:57:53.818Z,-1.30
2018-11-27T04:00:23.829Z,-1.30
2018-11-27T04:02:54.297Z,-1.40
2018-11-27T04:05:23.458Z,-1.40
2018-11-27T04:07:51.823Z,-1.40
2018-11-27T04:10:21.470Z,-1.40
2018-11-27T04:12:49.780Z,-1.40
2018-11-27T04:15:18.582Z,-1.40
2018-11-27T04:17:47.076Z,-1.40
2018-11-27T04:20:15.430Z,-1.40
2018-11-27T04:22:44.116Z,-1.40
2018-11-27T04:25:13.545Z,-1.40
2018-11-27T04:27:41.831Z,-1.40
2018-11-27T04:30:11.805Z,-1.40
2018-11-27T04:32:40.158Z,-1.40
2018-11-27T04:35:09.466Z,-1.40
2018-11-27T04:37:37.849Z,-1.40
2018-11-27T04:40:08.363Z,-1.40
2018-11-27T04:42:36.794Z,-1.50
2018-11-27T04:45:07.808Z,-1.40
2018-11-27T04:47:36.334Z,-1.50
2018-11-27T04:50:06.203Z,-1.40
2018-11-27T04:52:34.603Z,-1.40
2018-11-27T04:55:03.017Z,-1.50
2018-11-27T04:57:31.533Z,-1.50
2018-11-27T04:59:59.922Z,-1.50
2018-11-27T05:02:28.659Z,-1.50
2018-11-27T05:04:57.019Z,-1.50
2018-11-27T05:07:25.398Z,-1.50
2018-11-27T05:09:53.843Z,-1.50
2018-11-27T05:12:22.248Z,-1.50
2018-11-27T05:14:50.744Z,-1.50
2018-11-27T05:17:19.154Z,-1.50
2018-11-27T05:19:47.777Z,-1.60
2018-11-27T05:22:16.527Z,-1.60
2018-11-27T05:24:45.061Z,-1.60
2018-11-27T05:27:14.520Z,-1.60
2018-11-27T05:29:42.901Z,-1.60
2018-11-27T05:32:11.480Z,-1.50
2018-11-27T05:34:40.581Z,-1.50
2018-11-27T05:37:09.013Z,-1.60
2018-11-27T05:39:37.557Z,-1.50
2018-11-27T05:42:06.741Z,-1.60
2018-11-27T05:44:35.743Z,-1.60
2018-11-27T05:49:54.891Z,-1.60
2018-11-27T05:52:24.985Z,-1.50
2018-11-27T05:54:53.229Z,-1.60
2018-11-27T05:57:22.563Z,-1.60
2018-11-27T05:59:50.850Z,-1.70
2018-11-27T06:02:19.120Z,-1.70
2018-11-27T06:04:47.442Z,-1.70
2018-11-27T06:07:15.854Z,-1.70
2018-11-27T06:12:12.336Z,-1.70
2018-11-27T06:14:40.575Z,-1.70
2018-11-27T06:17:09.006Z,-1.70
2018-11-27T06:19:37.252Z,-1.70
2018-11-27T06:22:05.812Z,-1.70
2018-11-27T06:24:34.091Z,-1.70
2018-11-27T06:27:02.410Z,-1.70
2018-11-27T06:29:30.711Z,-1.70
2018-11-27T06:31:58.981Z,-1.70
2018-11-27T06:34:27.325Z,-1.70
2018-11-27T06:36:55.595Z,-1.60
2018-11-27T06:39:23.841Z,-1.60
2018-11-27T06:41:52.131Z,-1.50
2018-11-27T06:44:20.327Z,-1.50
2018-11-27T06:46:48.595Z,-1.40
2018-11-27T06:49:16.826Z,-1.30
2018-11-27T06:51:45.163Z,-1.30
2018-11-27T06:54:13.474Z,-1.20
2018-11-27T06:56:41.750Z,-1.20
2018-11-27T06:59:10.196Z,-1.20
2018-11-27T07:01:38.515Z,-1.20
2018-11-27T07:04:06.781Z,-1.10
2018-11-27T07:06:35.037Z,-1.10
2018-11-27T07:09:03.386Z,-1.10
2018-11-27T07:11:31.638Z,-1.10
2018-11-27T07:13:59.895Z,-1.00
2018-11-27T07:16:28.119Z,-1.00
2018-11-27T07:18:56.380Z,-1.00
2018-11-27T07:21:24.633Z,-0.90
2018-11-27T07:23:52.861Z,-0.90
2018-11-27T07:26:21.100Z,-0.90
2018-11-27T07:28:49.414Z,-0.80
2018-11-27T07:31:17.723Z,-0.80
2018-11-27T07:33:46.165Z,-0.80
2018-11-27T07:36:14.527Z,-0.80
2018-11-27T07:38:42.723Z,-0.80
2018-11-27T07:41:10.996Z,-0.70
2018-11-27T07:43:39.257Z,-0.70
2018-11-27T07:46:07.523Z,-0.70
2018-11-27T07:48:36.415Z,-0.70
2018-11-27T07:51:05.339Z,-0.70
2018-11-27T07:53:33.589Z,-0.60
2018-11-27T07:56:01.983Z,-0.60
2018-11-27T07:58:30.316Z,-0.50
2018-11-27T08:00:58.612Z,-0.50
2018-11-27T08:03:26.907Z,-0.50
2018-11-27T08:05:55.218Z,-0.40
2018-11-27T08:08:23.595Z,-0.40
2018-11-27T08:10:51.837Z,-0.40
2018-11-27T08:13:20.145Z,-0.30
2018-11-27T08:15:48.469Z,-0.30
2018-11-27T08:18:16.733Z,-0.20
2018-11-27T08:20:45.076Z,-0.20
2018-11-27T08:23:13.458Z,-0.20
2018-11-27T08:25:41.815Z,-0.10
2018-11-27T08:28:10.145Z,0.00
2018-11-27T08:30:38.496Z,0.10
2018-11-27T08:33:07.121Z,0.10
2018-11-27T08:35:35.528Z,0.20
2018-11-27T08:38:03.899Z,0.30
2018-11-27T08:40:33.538Z,0.30
2018-11-27T08:43:08.517Z,0.40
2018-11-27T08:45:36.825Z,0.40
2018-11-27T08:48:05.130Z,0.50
2018-11-27T08:50:33.414Z,0.50
2018-11-27T08:53:03.995Z,0.60
2018-11-27T08:55:34.813Z,0.60
2018-11-27T08:58:03.515Z,0.70
2018-11-27T09:00:31.849Z,0.80
2018-11-27T09:03:00.196Z,0.90
2018-11-27T09:05:28.509Z,1.00
2018-11-27T09:07:56.903Z,1.10
2018-11-27T09:10:26.169Z,1.20
2018-11-27T09:12:54.366Z,1.20
2018-11-27T09:15:23.279Z,1.30
2018-11-27T09:18:00.388Z,1.30
2018-11-27T09:20:28.691Z,1.40
2018-11-27T09:22:57.017Z,1.40
2018-11-27T09:25:25.470Z,1.60
2018-11-27T09:27:53.886Z,1.60
2018-11-27T09:30:23.536Z,1.60
2018-11-27T09:32:52.278Z,1.60
2018-11-27T09:35:20.652Z,1.60
2018-11-27T09:37:48.924Z,1.60
2018-11-27T09:40:18.518Z,1.50
2018-11-27T09:42:46.968Z,1.60
2018-11-27T09:45:20.692Z,1.70
2018-11-27T09:47:50.408Z,1.80
2018-11-27T09:50:18.656Z,1.90
2018-11-27T09:52:47.067Z,2.00
2018-11-27T09:55:18.544Z,2.10
2018-11-27T09:57:46.878Z,2.20
2018-11-27T10:00:19.376Z,2.20
2018-11-27T10:02:47.728Z,2.30
2018-11-27T10:05:16.463Z,2.30
2018-11-27T10:07:44.769Z,2.30
2018-11-27T10:10:15.337Z,2.30
2018-11-27T10:12:43.893Z,2.30
2018-11-27T10:15:15.151Z,2.30
2018-11-27T10:17:43.756Z,2.30
2018-11-27T10:20:19.387Z,2.40
2018-11-27T10:22:47.663Z,2.30
2018-11-27T10:25:15.989Z,2.40
2018-11-27T10:27:44.787Z,2.40
2018-11-27T10:30:22.219Z,2.40
2018-11-27T10:32:51.575Z,2.40
2018-11-27T10:35:24.047Z,2.40
2018-11-27T10:37:52.330Z,2.50
2018-11-27T10:40:20.601Z,2.40
2018-11-27T10:42:48.913Z,2.40
2018-11-27T10:45:18.226Z,2.60
2018-11-27T10:47:47.619Z,2.60
2018-11-27T10:50:16.622Z,2.70
2018-11-27T10:52:46.219Z,2.70
2018-11-27T10:55:15.448Z,2.80
2018-11-27T10:57:44.143Z,2.90
2018-11-27T11:00:20.334Z,2.90
2018-11-27T11:02:54.113Z,2.90
2018-11-27T11:05:25.592Z,3.00
2018-11-27T11:07:53.872Z,3.00
2018-11-27T11:10:22.204Z,3.00
2018-11-27T11:12:50.883Z,3.10
2018-11-27T11:15:19.236Z,3.20
2018-11-27T11:17:47.493Z,3.20
2018-11-27T11:20:15.921Z,3.30
2018-11-27T11:22:44.205Z,3.30
2018-11-27T11:25:16.749Z,3.40
2018-11-27T11:27:46.372Z,3.40
2018-11-27T11:30:18.131Z,3.40
2018-11-27T11:32:46.618Z,3.50
2018-11-27T11:35:15.175Z,3.60
2018-11-27T11:37:43.618Z,3.60
2018-11-27T11:40:13.691Z,3.70
2018-11-27T11:42:42.121Z,3.70
2018-11-27T11:45:11.425Z,3.70
2018-11-27T11:47:40.040Z,3.80
2018-11-27T11:50:14.161Z,3.80
2018-11-27T11:52:45.507Z,3.90
2018-11-27T11:55:13.458Z,3.90
2018-11-27T11:57:42.608Z,3.80
2018-11-27T12:00:17.960Z,3.80
2018-11-27T12:02:46.184Z,3.50
2018-11-27T12:05:14.438Z,3.50
2018-11-27T12:07:42.652Z,3.50
2018-11-27T12:10:13.040Z,3.50
2018-11-27T12:12:41.816Z,3.40
2018-11-27T12:15:14.030Z,3.30
2018-11-27T12:17:42.905Z,3.40
2018-11-27T12:20:12.281Z,3.40
2018-11-27T12:22:41.360Z,3.30
2018-11-27T12:25:11.126Z,3.40
2018-11-27T12:27:39.350Z,3.40
2018-11-27T12:30:10.943Z,3.50
2018-11-27T12:32:39.397Z,3.50
2018-11-27T12:35:08.328Z,3.50
2018-11-27T12:37:36.542Z,3.50
2018-11-27T12:40:07.667Z,3.60
2018-11-27T12:42:35.860Z,3.60
2018-11-27T12:45:04.044Z,3.60
2018-11-27T12:47:33.263Z,3.70
2018-11-27T12:50:01.449Z,3.60
2018-11-27T12:52:29.640Z,3.60
2018-11-27T12:54:57.838Z,3.60
2018-11-27T12:57:26.104Z,3.60
2018-11-27T12:59:54.445Z,3.50
2018-11-27T13:02:22.644Z,3.40
2018-11-27T13:04:50.904Z,3.00
2018-11-27T13:07:19.166Z,3.00
2018-11-27T13:09:47.371Z,3.00
2018-11-27T13:12:15.663Z,3.10
2018-11-27T13:14:43.840Z,3.10
2018-11-27T13:17:12.113Z,3.10
2018-11-27T13:19:40.416Z,3.10
2018-11-27T13:22:08.727Z,3.10
2018-11-27T13:24:36.933Z,3.10
2018-11-27T13:27:05.149Z,3.10
2018-11-27T13:29:33.417Z,3.10
2018-11-27T13:32:01.649Z,3.10
2018-11-27T13:34:30.005Z,3.10
2018-11-27T13:36:58.269Z,3.10
2018-11-27T13:39:35.873Z,3.10
2018-11-27T13:42:04.125Z,3.10
2018-11-27T13:44:32.368Z,3.10
2018-11-27T13:47:00.872Z,3.10
2018-11-27T13:49:29.063Z,3.10
2018-11-27T13:51:57.309Z,3.10
2018-11-27T13:54:25.521Z,3.10
2018-11-27T13:56:53.759Z,3.10
2018-11-27T13:59:21.973Z,3.10
2018-11-27T14:01:50.287Z,3.00
2018-11-27T14:04:18.518Z,3.00
2018-11-27T14:06:46.722Z,3.00
2018-11-27T14:09:14.999Z,2.90
2018-11-27T14:11:43.247Z,2.90
2018-11-27T14:14:11.517Z,2.90
2018-11-27T14:16:39.782Z,2.90
2018-11-27T14:19:08.047Z,2.90
2018-11-27T14:21:36.351Z,2.80
2018-11-27T14:24:04.947Z,2.80
2018-11-27T14:26:33.103Z,2.80
2018-11-27T14:29:01.295Z,2.80
2018-11-27T14:31:29.539Z,2.80
2018-11-27T14:33:57.802Z,2.70
2018-11-27T14:36:26.010Z,2.70
2018-11-27T14:38:54.170Z,2.60
2018-11-27T14:41:22.555Z,2.60
2018-11-27T14:43:50.862Z,2.60
2018-11-27T14:46:19.022Z,2.60
2018-11-27T14:48:47.258Z,2.50
2018-11-27T14:51:15.495Z,2.50
2018-11-27T14:53:43.734Z,2.50
2018-11-27T14:56:12.085Z,2.50
2018-11-27T14:58:40.381Z,2.50
2018-11-27T15:01:08.562Z,2.40
2018-11-27T15:03:36.911Z,2.40
2018-11-27T15:06:05.353Z,2.40
2018-11-27T15:08:33.631Z,2.30
2018-11-27T15:11:02.248Z,2.30
2018-11-27T15:13:30.451Z,2.30
2018-11-27T15:15:58.657Z,2.30
2018-11-27T15:18:26.877Z,2.30
2018-11-27T15:20:55.211Z,2.20
2018-11-27T15:23:23.646Z,2.20
2018-11-27T15:25:52.009Z,2.20
2018-11-27T15:28:20.214Z,2.20
2018-11-27T15:30:48.532Z,2.20
2018-11-27T15:33:18.747Z,2.20
2018-11-27T15:35:45.174Z,2.20
2018-11-27T15:38:13.422Z,2.10
2018-11-27T15:40:41.650Z,2.10
2018-11-27T15:43:09.839Z,2.10
2018-11-27T15:45:38.081Z,2.10
2018-11-27T15:48:07.859Z,2.10
2018-11-27T15:50:36.133Z,2.10
2018-11-27T15:53:04.502Z,2.10
2018-11-27T15:55:34.231Z,2.10
2018-11-27T15:58:11.416Z,2.10
2018-11-27T16:00:40.402Z,2.10
2018-11-27T16:03:08.638Z,2.10
2018-11-27T16:05:37.433Z,2.00
2018-11-27T16:08:06.180Z,2.00
2018-11-27T16:10:34.372Z,2.00
2018-11-27T16:13:02.566Z,2.00
2018-11-27T16:15:30.924Z,2.00
2018-11-27T16:17:59.167Z,2.00
2018-11-27T16:20:27.396Z,2.00
2018-11-27T16:22:55.692Z,2.00
2018-11-27T16:25:25.754Z,2.00
2018-11-27T16:27:53.534Z,2.00
2018-11-27T16:30:27.017Z,2.00
2018-11-27T16:32:55.282Z,2.00
2018-11-27T16:35:23.932Z,2.00
2018-11-27T16:37:57.266Z,2.10
2018-11-27T16:40:27.806Z,2.00
2018-11-27T16:42:56.075Z,2.00
2018-11-27T16:45:24.637Z,2.10
2018-11-27T16:47:53.091Z,2.10
2018-11-27T16:50:21.476Z,2.10
2018-11-27T16:52:49.867Z,2.10
2018-11-27T16:55:19.288Z,2.10
2018-11-27T16:57:47.466Z,2.10
2018-11-27T17:00:18.665Z,2.10
2018-11-27T17:02:47.324Z,2.10
2018-11-27T17:05:15.603Z,2.00
2018-11-27T17:07:43.805Z,2.00
2018-11-27T17:10:13.088Z,2.00
2018-11-27T17:12:41.638Z,2.00
2018-11-27T17:15:12.097Z,2.00
2018-11-27T17:17:40.359Z,2.00
2018-11-27T17:20:27.882Z,2.00
2018-11-27T17:22:58.146Z,2.00
2018-11-27T17:25:26.341Z,2.00
2018-11-27T17:27:55.547Z,2.00
2018-11-27T17:30:28.884Z,2.00
2018-11-27T17:32:57.751Z,2.00
2018-11-27T17:35:26.653Z,2.00
2018-11-27T17:37:55.162Z,2.00
2018-11-27T17:40:23.389Z,2.00
2018-11-27T17:42:51.649Z,2.00
2018-11-27T17:45:19.877Z,2.10
2018-11-27T17:47:48.101Z,2.10
2018-11-27T17:50:17.358Z,2.10
2018-11-27T17:52:45.703Z,2.10
2018-11-27T17:55:14.266Z,2.10
2018-11-27T17:57:42.562Z,2.00
2018-11-27T18:00:14.357Z,2.00
2018-11-27T18:02:43.344Z,2.00
2018-11-27T18:05:11.572Z,2.10
2018-11-27T18:07:39.856Z,2.10
2018-11-27T18:10:09.714Z,2.10
2018-11-27T18:12:37.973Z,2.10
2018-11-27T18:15:09.613Z,2.10
2018-11-27T18:17:37.902Z,2.10
2018-11-27T18:20:07.482Z,2.10
2018-11-27T18:22:35.754Z,2.10
2018-11-27T18:25:10.438Z,2.10
2018-11-27T18:27:38.932Z,2.10
2018-11-27T18:30:12.878Z,2.10
2018-11-27T18:32:41.089Z,2.10
2018-11-27T18:35:11.731Z,2.10
2018-11-27T18:37:40.039Z,2.10
2018-11-27T18:40:11.274Z,2.10
2018-11-27T18:42:39.688Z,2.10
2018-11-27T18:45:12.072Z,2.10
2018-11-27T18:47:41.527Z,2.10
2018-11-27T18:50:11.312Z,2.10
2018-11-27T18:52:40.543Z,2.10
2018-11-27T18:55:10.368Z,2.10
2018-11-27T18:57:38.846Z,2.00
2018-11-27T19:00:16.757Z,2.00
2018-11-27T19:02:45.034Z,2.00
2018-11-27T19:05:13.355Z,2.00
2018-11-27T19:07:41.724Z,2.00
2018-11-27T19:10:13.876Z,2.00
2018-11-27T19:12:42.152Z,2.00
2018-11-27T19:15:13.417Z,2.00
2018-11-27T19:17:42.540Z,2.00
2018-11-27T19:20:12.282Z,2.00
2018-11-27T19:22:40.732Z,2.00
2018-11-27T19:25:10.888Z,2.00
2018-11-27T19:27:39.231Z,2.00
2018-11-27T19:30:16.210Z,2.00
2018-11-27T19:32:43.324Z,2.00
2018-11-27T19:35:14.133Z,2.00
2018-11-27T19:37:42.399Z,1.90
2018-11-27T19:40:12.424Z,2.00
2018-11-27T19:42:40.826Z,2.00
2018-11-27T19:45:15.313Z,2.00
2018-11-27T19:47:45.250Z,1.90
2018-11-27T19:50:14.110Z,2.00
2018-11-27T19:52:43.616Z,1.90
2018-11-27T19:55:13.239Z,1.90
2018-11-27T20:00:22.264Z,1.90
2018-11-27T20:02:51.089Z,1.90
2018-11-27T20:05:20.644Z,1.90
2018-11-27T20:07:48.982Z,1.90
2018-11-27T20:10:17.625Z,1.90
2018-11-27T20:12:46.220Z,1.90
2018-11-27T20:15:18.824Z,1.90
2018-11-27T20:17:48.127Z,1.90
2018-11-27T20:20:17.543Z,1.90
2018-11-27T20:22:45.804Z,1.90
2018-11-27T20:25:16.590Z,1.90
2018-11-27T20:27:45.205Z,1.90
2018-11-27T20:30:15.789Z,1.90
2018-11-27T20:32:47.988Z,1.90
2018-11-27T20:35:17.082Z,1.90
2018-11-27T20:37:45.917Z,1.90
2018-11-27T20:40:16.367Z,1.90
2018-11-27T20:42:45.037Z,1.90
2018-11-27T20:45:22.299Z,1.80
2018-11-27T20:47:52.603Z,1.80
2018-11-27T20:50:21.935Z,1.80
2018-11-27T20:52:50.327Z,1.80
2018-11-27T20:55:18.912Z,1.80
2018-11-27T20:57:49.094Z,1.80
2018-11-27T21:00:20.315Z,1.90
2018-11-27T21:02:48.753Z,1.90
2018-11-27T21:05:17.293Z,1.90
2018-11-27T21:07:45.642Z,1.90
2018-11-27T21:10:14.731Z,1.90
2018-11-27T21:12:43.668Z,1.90
2018-11-27T21:15:15.213Z,1.90
2018-11-27T21:17:43.583Z,1.90
2018-11-27T21:20:12.721Z,1.90
2018-11-27T21:22:41.111Z,1.90
2018-11-27T21:25:12.649Z,2.00
2018-11-27T21:27:41.097Z,2.00
2018-11-27T21:30:12.166Z,2.00
2018-11-27T21:32:40.787Z,1.90
2018-11-27T21:35:10.631Z,1.90
2018-11-27T21:37:39.019Z,1.90
2018-11-27T21:40:10.167Z,1.90
2018-11-27T21:42:38.784Z,1.90
2018-11-27T21:45:11.987Z,1.90
2018-11-27T21:47:40.306Z,1.90
2018-11-27T21:50:13.032Z,1.90
2018-11-27T21:52:41.316Z,1.90
2018-11-27T21:55:12.407Z,1.90
2018-11-27T21:57:40.821Z,1.90
2018-11-27T22:00:12.991Z,1.90
2018-11-27T22:02:41.293Z,1.90
2018-11-27T22:05:10.359Z,1.90
2018-11-27T22:07:38.619Z,1.80
2018-11-27T22:10:15.759Z,1.90
2018-11-27T22:12:45.191Z,1.90
2018-11-27T22:15:17.834Z,1.90
2018-11-27T22:17:46.104Z,1.90
2018-11-27T22:20:14.388Z,1.90
2018-11-27T22:22:42.650Z,1.90
2018-11-27T22:25:11.968Z,1.90
2018-11-27T22:27:40.160Z,1.90
2018-11-27T22:30:14.112Z,1.90
2018-11-27T22:32:46.429Z,1.90
2018-11-27T22:35:14.617Z,1.90
2018-11-27T22:37:42.888Z,1.90
2018-11-27T22:40:13.171Z,1.90
2018-11-27T22:42:41.465Z,1.90
2018-11-27T22:45:12.603Z,1.90
2018-11-27T22:47:40.844Z,2.00
2018-11-27T22:50:13.451Z,2.10
2018-11-27T22:52:41.707Z,2.10
2018-11-27T22:55:10.269Z,2.10
2018-11-27T22:57:38.464Z,2.00
2018-11-27T23:00:27.471Z,2.00
2018-11-27T23:02:55.894Z,2.00
2018-11-27T23:05:24.203Z,2.00
2018-11-27T23:07:52.465Z,2.00
2018-11-27T23:10:20.773Z,2.00
2018-11-27T23:12:48.941Z,2.10
2018-11-27T23:15:18.345Z,2.00
2018-11-27T23:17:46.621Z,2.00
2018-11-27T23:20:17.746Z,2.00
2018-11-27T23:22:46.023Z,2.00
2018-11-27T23:25:15.287Z,2.00
2018-11-27T23:27:43.494Z,2.00
2018-11-27T23:30:15.540Z,2.00
2018-11-27T23:32:43.853Z,2.00
2018-11-27T23:35:12.171Z,2.00
2018-11-27T23:37:40.441Z,2.00
2018-11-27T23:40:10.621Z,2.00
2018-11-27T23:42:39.155Z,2.00
2018-11-27T23:45:10.465Z,2.00
2018-11-27T23:47:38.743Z,2.00
2018-11-27T23:50:08.522Z,2.00
2018-11-27T23:52:36.731Z,2.00
2018-11-27T23:55:05.775Z,2.00
2018-11-27T23:57:34.189Z,2.00
